Tiempo atmosférico en la estación meteorológica de Rascafría, Madrid (1159 m.)



Fecha
DESCASC
Temp. máxima en grados centígrados (hora)
DESCASC
Temp. mínima en grados centígrados (hora)
DESCASC
Temp. media en grados centígrados
DESCASC
Racha de viento máxima en m/sg (hora)
DESCASC
Velocidad máxima media en intervalos de 10 minutos(hora)
DESCASC
Precipitaciones diarias en mm
DESCASC
Precipitaciones de 00:00 a 06:00 en mm
DESCASC
Precipitaciones de 06:00 a 12:00 en mm
DESCASC
Precipitaciones de 12:00 a 18:00 en mm
DESCASC
Precipitaciones de 18:00 a 24:00 en mm
DESCASC
26-11-2020 8.7 (22:50) 4.6 (07:20) 6.6 11.11 (22:30) 4.17 (19:30) 27 7.4 8.6 10 1
25-11-2020 8.9 (15:30) -3.2 (08:30) 2.8 7.22 (22:10) 3.33 (22:20) 2.4 0 0 0 2.4
24-11-2020 13.3 (14:30) -2 (06:50) 5.7 3.61 (18:10) 1.11 (15:00) 0 0 0 0 0
23-11-2020 17.1 (15:30) -1.9 (08:00) 7.6 2.78 (15:40) 1.11 (14:40) 0 0 0 0 0
22-11-2020 17.5 (15:20) -3.7 (-00:0) 6.9 2.78 (16:00) 1.11 (16:00) 0 0 0 0 0
21-11-2020 18.3 (14:50) -1.4 (-00:0) 8.4 4.72 (16:00) 2.22 (16:20) 0 0 0 0 0
20-11-2020 19 (14:10) 0.4 (00:00) 9.7 5 (14:30) 2.22 (15:40) 0 0 0 0 0
19-11-2020 20.2 (13:40) 3.1 (00:00) 11.7 6.39 (14:20) 3.33 (14:20) 0 0 0 0 0
18-11-2020 21.4 (14:20) 0.9 (00:00) 11.1 6.11 (13:10) 2.22 (14:30) 0 0 0 0 0
17-11-2020 20.5 (15:40) -0.3 (00:00) 10.1 2.5 (16:10) 1.11 (12:00) 0 0 0 0 0
16-11-2020 18.2 (13:10) 1.7 (00:00) 10 8.61 (00:20) 3.61 (00:40) 1.8 1.8 0 0 0
15-11-2020 16.1 (13:20) 7.7 (00:00) 11.9 12.78 (16:50) 3.61 (23:10) 0 0 0 0 0
14-11-2020 10.5 (15:00) 4.5 (00:00) 7.5 1.94 (14:40) 0.83 (15:00) 0.6 0 0.2 0.2 0.2
13-11-2020 13.7 (13:20) 0.8 (00:00) 7.2 2.78 (15:00) 1.39 (15:30) 0 0 0 0 0
12-11-2020 14.5 (14:40) 2.2 (00:00) 8.4 3.06 (14:30) 1.11 (14:30) 0 0 0 0 0
11-11-2020 15.6 (15:20) 0.5 (00:00) 8.1 3.06 (16:20) 1.39 (17:20) 0 0 0 0 0
10-11-2020 16.1 (16:10) 0.2 (00:00) 8.2 4.17 (14:30) 1.67 (14:30) 0.2 0 0.2 0 0
09-11-2020 13.5 (16:10) 2.6 (00:00) 8 2.5 (16:50) 1.11 (15:30) 2.8 2.6 0 0 0.2
08-11-2020 15.5 (14:20) 6.2 (00:00) 10.8 5.28 (15:40) 2.22 (15:40) 0 0 0 0 0
07-11-2020 13.5 (16:00) 5.9 (00:00) 9.7 8.06 (00:50) 2.5 (04:20) 26.2 21 4.6 0.6 0
06-11-2020 15.9 (13:00) 8.3 (00:00) 12.1 15 (20:40) 5.56 (20:40) 17 0 0 2.2 14.8
05-11-2020 10 (15:00) 5.7 (00:00) 7.8 11.67 (15:30) 4.44 (15:40) 38.4 2 11.4 17 8
04-11-2020 8.2 (00:00) 4 (00:00) 6.1 3.61 (21:00) 1.67 (21:10) 5.2 0 0 1 4.2
03-11-2020 14.1 (15:00) 8.2 (00:00) 11.2 9.44 (09:10) 3.89 (09:10) 0.4 0 0.4 0 0
02-11-2020 23.1 (14:30) 5 (00:00) 14.1 6.67 (12:00) 2.78 (11:50) 0 0 0 0 0
01-11-2020 21.3 (14:00) 2.4 (00:00) 11.8 2.78 (13:00) 1.11 (15:40) 0 0 0 0 0
31-10-2020 21.1 (13:00) 1.3 (00:00) 11.2 8.06 (13:20) 3.33 (13:40) 0 0 0 0 0
30-10-2020 20.5 (15:20) -1.4 (-00:0) 9.6 2.78 (13:40) 1.11 (13:20) 0.2 0 0.2 0 0
29-10-2020 16.8 (16:00) -0.8 (-00:0) 8 3.33 (11:50) 1.67 (11:50) 0 0 0 0 0
28-10-2020 13.7 (16:40) 5.7 (00:00) 9.7 4.44 (02:20) 1.39 (16:40) 1.6 0.2 0.6 0.6 0.2

Gráficas

Temp. máximas Temp. mínimas Temp. medias Precipitaciones Rachas de viento máximas Velocidades máximas media en intervalos de 10 minutos

Datos horarios

Fecha y hora oficial Temperatura (ºC) Velocidad del viento (km/h) Dirección del viento Racha (km/h) Dirección de racha Precipitación (mm) Presión (hPa) Tendencia (hPa) Humedad (%)
2020-11-26 23:00:00 8.6 8 Este 40 Este 0 -- -- 81
2020-11-26 22:00:00 8.5 12 Sudeste 30 Este 0 -- -- 82
2020-11-26 21:00:00 8.3 8 Sudeste 30 Este 0 -- -- 84
2020-11-26 20:00:00 8.3 13 Sudeste 39 Este 0.4 -- -- 83
2020-11-26 19:00:00 8.1 9 Este 31 Este 0.6 -- -- 85
2020-11-26 18:00:00 7.4 5 Nordeste 32 Sudeste 1.4 -- -- 91
2020-11-26 17:00:00 7.2 5 Este 22 Este 2.6 -- -- 91
2020-11-26 16:00:00 7 5 Este 17 Sudeste 1.8 -- -- 91
2020-11-26 15:00:00 6.9 5 Este 19 Este 2 -- -- 91
2020-11-26 14:00:00 7.1 6 Este 36 Sur 1.8 -- -- 87
2020-11-26 13:00:00 7.9 5 Este 29 Nordeste 0.4 -- -- 87
2020-11-26 12:00:00 7.1 6 Este 19 Este 0.2 -- -- 89
2020-11-26 11:00:00 5.9 6 Nordeste 21 Nordeste 0.6 -- -- 96
2020-11-26 10:00:00 5.2 6 Nordeste 21 Nordeste 1.2 -- -- 96
2020-11-26 09:00:00 4.7 4 Nordeste 15 Este 1.4 -- -- 96
2020-11-26 08:00:00 4.6 0 Calma 3 Sudeste 2.4 -- -- 96
2020-11-26 07:00:00 4.7 0 Calma 8 Norte 2.8 -- -- 95
2020-11-26 06:00:00 4.9 2 Norte 8 Norte 1.6 -- -- 93
2020-11-26 05:00:00 5.1 2 Norte 23 Sur 0.8 -- -- 94
2020-11-26 04:00:00 5.5 4 Norte 20 Sur 1.6 -- -- 92
2020-11-26 03:00:00 6 6 Sudeste 24 Sudeste 1.2 -- -- 91
2020-11-26 02:00:00 6.3 9 Sudeste 18 Sudeste 1.2 -- -- 90
2020-11-26 01:00:00 6.3 4 Sudeste 22 Sudeste 1 -- -- 90
2020-11-26 00:00:00 6.7 6 Sur 23 Sudeste 0.4 -- -- 89
2020-11-25 23:00:00 6.3 3 Este 26 Sudeste 0.4 -- -- 93
2020-11-25 22:00:00 6 4 Este 13 Este 0.4 -- -- 93
2020-11-25 21:00:00 6.5 8 Sudeste 25 Sudeste 1.2 -- -- 86
2020-11-25 20:00:00 7.7 9 Sudeste 23 Sudeste 0 -- -- 75
2020-11-25 19:00:00 7.5 11 Sudeste 22 Este 0 -- -- 75
2020-11-25 18:00:00 6.8 4 Nordeste 19 Este 0 -- -- 80
2020-11-25 17:00:00 7.1 2 Este 18 Este 0 -- -- 76
2020-11-25 16:00:00 8.2 6 Este 23 Sudeste 0 -- -- 66
2020-11-25 15:00:00 8.4 7 Este 19 Sudeste 0 -- -- 67
2020-11-25 14:00:00 6.5 0 Calma 8 Nordeste 0 -- -- 79
2020-11-25 13:00:00 5.2 2 Este 6 Este 0 -- -- 82
2020-11-25 12:00:00 4.7 0 Calma 4 Sur 0 -- -- 82
2020-11-25 11:00:00 4.1 0 Calma 3 Sudeste 0 -- -- 84
2020-11-25 10:00:00 0.3 0 Calma 2 Este 0 -- -- 97
2020-11-25 09:00:00 -2.8 0 Calma 2 Sudoeste 0 -- -- 96
2020-11-25 08:00:00 -2.9 0 Calma 2 Sudoeste 0 -- -- 95
2020-11-25 07:00:00 -2.3 0 Calma 2 Oeste 0 -- -- 95
2020-11-25 06:00:00 -1.6 0 Calma 2 Oeste 0 -- -- 94
2020-11-25 05:00:00 -0.5 0 Calma 2 Oeste 0 -- -- 95
2020-11-25 04:00:00 0.6 0 Calma 2 Sur 0 -- -- 95
2020-11-25 03:00:00 1.2 0 Calma 0 Calma 0 -- -- 95
2020-11-25 02:00:00 0.8 0 Calma 2 Oeste 0 -- -- 96
2020-11-25 01:00:00 -0.1 0 Calma 2 Sudoeste 0 -- -- 96
2020-11-25 00:00:00 -1.4 0 Calma 2 Oeste 0 -- -- 94
2020-11-24 23:00:00 -0.8 0 Calma 2 Oeste 0 -- -- 94
2020-11-24 22:00:00 -0.1 0 Calma 2 Sudoeste 0 -- -- 92
2020-11-24 21:00:00 1.1 0 Calma 2 Sudoeste 0 -- -- 90
2020-11-24 20:00:00 2.8 0 Calma 5 Nordeste 0 -- -- 86
2020-11-24 19:00:00 5.4 0 Calma 13 Nordeste 0 -- -- 80
2020-11-24 18:00:00 7.5 4 Norte 10 Norte 0 -- -- 73
2020-11-24 17:00:00 10.4 3 Nordeste 12 Nordeste 0 -- -- 62
2020-11-24 16:00:00 11.9 4 Nordeste 11 Nordeste 0 -- -- 55
2020-11-24 15:00:00 13 4 Nordeste 10 Norte 0 -- -- 50
2020-11-24 14:00:00 12.9 2 Nordeste 9 Nordeste 0 -- -- 51
2020-11-24 13:00:00 12 3 Nordeste 8 Nordeste 0 -- -- 49
2020-11-24 12:00:00 10.4 0 Calma 4 Sudeste 0 -- -- 57
2020-11-24 11:00:00 6.6 2 Nordeste 4 Norte 0 -- -- 78
2020-11-24 10:00:00 1.5 0 Calma 0 Calma 0 -- -- 98
2020-11-24 09:00:00 -0.9 0 Calma 3 Oeste 0 -- -- 97
2020-11-24 08:00:00 -1.8 0 Calma 2 Sudoeste 0 -- -- 96
2020-11-24 07:00:00 -2 0 Calma 2 Sudoeste 0 -- -- 96
2020-11-24 06:00:00 -1.8 0 Calma 3 Sudoeste 0 -- -- 96
2020-11-24 05:00:00 -1.4 0 Calma 3 Sudoeste 0 -- -- 96
2020-11-24 04:00:00 -1.3 0 Calma 2 Sudoeste 0 -- -- 96
2020-11-24 03:00:00 -0.8 0 Calma 3 Sudoeste 0 -- -- 96
2020-11-24 02:00:00 -0.7 0 Calma 3 Sudoeste 0 -- -- 95
2020-11-24 01:00:00 -0.1 0 Calma 2 Sudoeste 0 -- -- 95
2020-11-24 00:00:00 0.2 0 Calma 3 Oeste 0 -- -- 93
2020-11-23 23:00:00 1 0 Calma 2 Sudoeste 0 -- -- 92
2020-11-23 22:00:00 1.5 2 Sudoeste 2 Sudoeste 0 -- -- 91
2020-11-23 21:00:00 2.1 0 Calma 2 Sudoeste 0 -- -- 89
2020-11-23 20:00:00 3.3 0 Calma 2 Oeste 0 -- -- 86
2020-11-23 19:00:00 5 0 Calma 2 Sudoeste 0 -- -- 80
2020-11-23 18:00:00 8.3 0 Calma 6 Norte 0 -- -- 70
2020-11-23 17:00:00 13.8 3 Norte 9 Norte 0 -- -- 51
2020-11-23 16:00:00 16.9 3 Nordeste 10 Nordeste 0 -- -- 40
2020-11-23 15:00:00 16.9 4 Nordeste 9 Norte 0 -- -- 37
2020-11-23 14:00:00 16.5 4 Nordeste 7 Este 0 -- -- 36
2020-11-23 13:00:00 14.6 0 Calma 7 Este 0 -- -- 40
2020-11-23 12:00:00 12.6 0 Calma 4 Sudeste 0 -- -- 44
2020-11-23 11:00:00 9.1 2 Este 4 Este 0 -- -- 58
2020-11-23 10:00:00 3.3 0 Calma 2 Sudoeste 0 -- -- 93
2020-11-23 09:00:00 -1.3 2 Sudoeste 3 Sudoeste 0 -- -- 97
2020-11-23 08:00:00 -1.9 0 Calma 2 Sudoeste 0 -- -- 96
2020-11-23 07:00:00 -1.5 0 Calma 3 Sudoeste 0 -- -- 96
2020-11-23 06:00:00 -1.5 0 Calma 2 Sudoeste 0 -- -- 96
2020-11-23 05:00:00 -1.4 0 Calma 2 Sudoeste 0 -- -- 95
2020-11-23 04:00:00 -1.1 0 Calma 2 Sudoeste 0 -- -- 95
2020-11-23 03:00:00 -0.8 0 Calma 3 Sudoeste 0 -- -- 94
2020-11-23 02:00:00 -0.7 0 Calma 3 Oeste 0 -- -- 94
2020-11-23 01:00:00 -0.5 0 Calma 3 Sudoeste 0 -- -- 94
2020-11-23 00:00:00 -0.2 0 Calma 3 Oeste 0 -- -- 92
2020-11-22 23:00:00 0.4 0 Calma 2 Sudoeste 0 -- -- 91
2020-11-22 22:00:00 0.9 0 Calma 3 Sudoeste 0 -- -- 89
2020-11-22 21:00:00 1.8 2 Sudoeste 3 Oeste 0 -- -- 86
2020-11-22 20:00:00 2.7 0 Calma 3 Sudoeste 0 -- -- 82
2020-11-22 19:00:00 4.3 0 Calma 3 Oeste 0 -- -- 76
2020-11-22 18:00:00 7 2 Sudoeste 3 Sudoeste 0 -- -- 69
2020-11-22 17:00:00 14.1 0 Calma 9 Nordeste 0 -- -- 49
2020-11-22 16:00:00 17.3 4 Nordeste 10 Este 0 -- -- 34
2020-11-22 15:00:00 17.1 3 Nordeste 8 Este 0 -- -- 31
2020-11-22 14:00:00 16.4 0 Calma 5 Este 0 -- -- 29
2020-11-22 13:00:00 14.5 3 Este 7 Este 0 -- -- 29
2020-11-22 12:00:00 12 0 Calma 4 Nordeste 0 -- -- 34
2020-11-22 11:00:00 7.9 0 Calma 3 Este 0 -- -- 56
2020-11-22 10:00:00 2.4 0 Calma 2 Sudoeste 0 -- -- 80
2020-11-22 09:00:00 -3 0 Calma 2 Oeste 0 -- -- 94
2020-11-22 08:00:00 -3.7 0 Calma 2 Sur 0 -- -- 92
2020-11-22 07:00:00 -3.5 0 Calma 3 Sudoeste 0 -- -- 91
2020-11-22 06:00:00 -3.3 0 Calma 3 Sudoeste 0 -- -- 90
2020-11-22 05:00:00 -2.9 2 Sudoeste 3 Oeste 0 -- -- 90
2020-11-22 04:00:00 -2.8 2 Sudoeste -- -- 0 -- -- 88
2020-11-22 03:00:00 -2.6 0 Calma 3 Sudoeste 0 -- -- 88
2020-11-22 02:00:00 -2.3 0 Calma 3 Sudoeste 0 -- -- 88
2020-11-22 01:00:00 -1.9 0 Calma 3 Sudoeste 0 -- -- 87
2020-11-22 00:00:00 -1.3 0 Calma 3 Sudoeste 0 -- -- 85
2020-11-21 23:00:00 -1 0 Calma 3 Sudoeste 0 -- -- 83
2020-11-21 22:00:00 -0.4 2 Sudoeste 3 Sudoeste 0 -- -- 80
2020-11-21 21:00:00 0.5 0 Calma 3 Oeste 0 -- -- 79
2020-11-21 20:00:00 1.6 0 Calma 3 Sudoeste 0 -- -- 74
2020-11-21 19:00:00 3.5 0 Calma 4 Sur 0 -- -- 70
2020-11-21 18:00:00 6.9 0 Calma 9 Norte 0 -- -- 60
2020-11-21 17:00:00 12.5 4 Norte 15 Norte 0 -- -- 36
2020-11-21 16:00:00 15.9 8 Nordeste 17 Nordeste 0 -- -- 28
2020-11-21 15:00:00 17.8 4 Nordeste 9 Nordeste 0 -- -- 20
2020-11-21 14:00:00 17.2 0 Calma 7 Este 0 -- -- 20
2020-11-21 13:00:00 15.6 3 Nordeste 7 Este 0 -- -- 23
2020-11-21 12:00:00 13.5 0 Calma 4 Este 0 -- -- 27
2020-11-21 11:00:00 10 0 Calma 3 Este 0 -- -- 36
2020-11-21 10:00:00 5.6 0 Calma 3 Oeste 0 -- -- 58
2020-11-21 09:00:00 -0.2 2 Sudoeste 4 Sudoeste 0 -- -- 82
2020-11-21 08:00:00 -0.9 2 Oeste 4 Oeste 0 -- -- 78
2020-11-21 07:00:00 -1.2 2 Sudoeste 3 Sudoeste 0 -- -- 77
2020-11-21 06:00:00 -0.8 0 Calma 3 Oeste 0 -- -- 78
2020-11-21 05:00:00 -0.2 2 Sudoeste 4 Sudoeste 0 -- -- 73
2020-11-21 04:00:00 0.2 0 Calma 4 Sur 0 -- -- 72
2020-11-21 03:00:00 -0.1 0 Calma 4 Sudoeste 0 -- -- 71
2020-11-21 02:00:00 -0.4 0 Calma 3 Sudoeste 0 -- -- 74
2020-11-21 01:00:00 -0.1 2 Sudoeste 4 Sudoeste 0 -- -- 72
2020-11-21 00:00:00 0.4 2 Sudoeste 4 Sudoeste 0 -- -- 71
2020-11-20 23:00:00 0.5 2 Sudoeste 4 Oeste 0 -- -- 75
2020-11-20 22:00:00 0.8 0 Calma 4 Sudoeste 0 -- -- 74
2020-11-20 21:00:00 1.9 3 Oeste 4 Sudoeste 0 -- -- 74
2020-11-20 20:00:00 3.1 2 Oeste 3 Oeste 0 -- -- 73
2020-11-20 19:00:00 5 0 Calma 4 Oeste 0 -- -- 71
2020-11-20 18:00:00 8.2 2 Sudoeste 5 Oeste 0 -- -- 59
2020-11-20 17:00:00 15.1 2 Este 16 Este 0 -- -- 35
2020-11-20 16:00:00 17.6 6 Este 17 Este 0 -- -- 26
2020-11-20 15:00:00 18.4 4 Este 18 Este 0 -- -- 22
2020-11-20 14:00:00 18.7 0 Calma 13 Este 0 -- -- 19
2020-11-20 13:00:00 17.9 5 Sudeste 16 Este 0 -- -- 20
2020-11-20 12:00:00 16.1 4 Sudeste 14 Este 0 -- -- 22
2020-11-20 11:00:00 13 0 Calma 8 Este 0 -- -- 31
2020-11-20 10:00:00 10.1 3 Este 15 Noroeste 0 -- -- 41
2020-11-20 09:00:00 2.2 4 Sudoeste 9 Oeste 0 -- -- 66
2020-11-20 08:00:00 0.6 2 Sudoeste 7 Sur 0 -- -- 69
2020-11-20 07:00:00 0.9 3 Sudoeste 6 Sur 0 -- -- 70
2020-11-20 06:00:00 0.9 2 Oeste 6 Oeste 0 -- -- 79
2020-11-20 05:00:00 0.7 2 Sudoeste 4 Sudoeste 0 -- -- 81
2020-11-20 04:00:00 0.8 2 Sudoeste 4 Noroeste 0 -- -- 79
2020-11-20 03:00:00 0.8 2 Sudoeste 4 Sudoeste 0 -- -- 82
2020-11-20 02:00:00 1.6 2 Sudoeste 6 Sudoeste 0 -- -- 82
2020-11-20 01:00:00 2.5 3 Sudoeste 8 Oeste 0 -- -- 86
2020-11-20 00:00:00 3.1 0 Calma 8 Sur 0 -- -- 90
2020-11-19 23:00:00 3.8 2 Oeste 4 Noroeste 0 -- -- 92
2020-11-19 22:00:00 5.2 0 Calma 5 Sudoeste 0 -- -- 89
2020-11-19 21:00:00 6.9 2 Oeste 4 Sur 0 -- -- 86
2020-11-19 20:00:00 9.8 0 Calma 13 Sudoeste 0 -- -- 77
2020-11-19 19:00:00 12.4 7 Noroeste 18 Noroeste 0 -- -- 70
2020-11-19 18:00:00 13.2 3 Oeste 18 Norte 0 -- -- 64
2020-11-19 17:00:00 15.9 4 Norte 19 Noroeste 0 -- -- 54
2020-11-19 16:00:00 18.8 4 Sur 14 Este 0 -- -- 45
2020-11-19 15:00:00 19.6 5 Oeste 23 Norte 0 -- -- 45
2020-11-19 14:00:00 20.1 5 Norte 16 Norte 0 -- -- 41
2020-11-19 13:00:00 19.9 5 Este 15 Sudeste 0 -- -- 41
2020-11-19 12:00:00 18.5 5 Norte 18 Nordeste 0 -- -- 40
2020-11-19 11:00:00 16.6 3 Nordeste 12 Norte 0 -- -- 49
2020-11-19 10:00:00 11.9 2 Sudoeste 10 Nordeste 0 -- -- 67
2020-11-19 09:00:00 5.9 0 Calma 6 Sudoeste 0 -- -- 84
2020-11-19 08:00:00 6.3 0 Calma 9 Sur 0 -- -- 78
2020-11-19 07:00:00 7.1 3 Sur 9 Sur 0 -- -- 74
2020-11-19 06:00:00 7.9 3 Sur 12 Sudoeste 0 -- -- 70
2020-11-19 05:00:00 6.8 4 Oeste 11 Norte 0 -- -- 78
2020-11-19 04:00:00 6.2 3 Sur 6 Sur 0 -- -- 81
2020-11-19 03:00:00 7.4 5 Sur 13 Sur 0 -- -- 77
2020-11-19 02:00:00 6.5 4 Oeste 9 Norte 0 -- -- 81
2020-11-19 01:00:00 7.2 0 Calma 16 Sudoeste 0 -- -- 75
2020-11-19 00:00:00 7.4 4 Sudoeste 9 Sudeste 0 -- -- 74
2020-11-18 23:00:00 6.1 0 Calma 12 Sur 0 -- -- 79
2020-11-18 22:00:00 6 4 Sur 9 Sur 0 -- -- 79
2020-11-18 21:00:00 6.1 3 Sudoeste 5 Sudoeste 0 -- -- 79
2020-11-18 20:00:00 6.9 2 Sudoeste 4 Sudoeste 0 -- -- 76
2020-11-18 19:00:00 8.1 2 Sudoeste 4 Sudoeste 0 -- -- 73
2020-11-18 18:00:00 11 0 Calma 4 Sudoeste 0 -- -- 65
2020-11-18 17:00:00 17.7 0 Calma 11 Noroeste 0 -- -- 47
2020-11-18 16:00:00 21.4 3 Oeste 16 Norte 0 -- -- 29
2020-11-18 15:00:00 21.1 6 Noroeste 21 Oeste 0 -- -- 28
2020-11-18 14:00:00 21.2 5 Oeste 22 Oeste 0 -- -- 29
2020-11-18 13:00:00 20.5 5 Oeste 12 Oeste 0 -- -- 30
2020-11-18 12:00:00 16.2 4 Nordeste 11 Nordeste 0 -- -- 56
2020-11-18 11:00:00 12.2 0 Calma 6 Sudeste 0 -- -- 63
2020-11-18 10:00:00 7.2 0 Calma 4 Oeste 0 -- -- 99
2020-11-18 09:00:00 2 0 Calma 5 Noroeste 0 -- -- 99
2020-11-18 08:00:00 1 0 Calma 2 Oeste 0 -- -- 98
2020-11-18 07:00:00 1.3 0 Calma 4 Sur 0 -- -- 97
2020-11-18 06:00:00 1.4 0 Calma 5 Sudoeste 0 -- -- 98
2020-11-18 05:00:00 1.3 0 Calma 3 Oeste 0 -- -- 97
2020-11-18 04:00:00 1.3 0 Calma 4 Sur 0 -- -- 97
2020-11-18 03:00:00 1.7 0 Calma 4 Noroeste 0 -- -- 97
2020-11-18 02:00:00 2.3 0 Calma 4 Sur 0 -- -- 97
2020-11-18 01:00:00 2.6 0 Calma 5 Oeste 0 -- -- 96
2020-11-18 00:00:00 3 0 Calma 4 Oeste 0 -- -- 97
2020-11-17 23:00:00 3.4 0 Calma 4 Sur 0 -- -- 95
2020-11-17 22:00:00 3.8 0 Calma 5 Sur 0 -- -- 94
2020-11-17 21:00:00 4.8 0 Calma 7 Sur 0 -- -- 93
2020-11-17 20:00:00 5.8 2 Sudoeste 6 Oeste 0 -- -- 91
2020-11-17 19:00:00 7.3 2 Sudoeste 6 Sur 0 -- -- 86
2020-11-17 18:00:00 10.1 2 Oeste 6 Sur 0 -- -- 76
2020-11-17 17:00:00 17.1 2 Nordeste 9 Este 0 -- -- 55
2020-11-17 16:00:00 20.2 3 Nordeste 9 Norte 0 -- -- 42
2020-11-17 15:00:00 20.3 3 Este 9 Norte 0 -- -- 35
2020-11-17 14:00:00 19.3 3 Este 8 Nordeste 0 -- -- 32
2020-11-17 13:00:00 17.5 2 Nordeste 8 Este 0 -- -- 35
2020-11-17 12:00:00 15.7 4 Este 7 Este 0 -- -- 47
2020-11-17 11:00:00 12.4 0 Calma 4 Sur 0 -- -- 53
2020-11-17 10:00:00 6.4 0 Calma 2 Sudoeste 0 -- -- 82
2020-11-17 09:00:00 0.5 0 Calma 2 Sudoeste 0 -- -- 97
2020-11-17 08:00:00 -0.3 0 Calma 3 Sudoeste 0 -- -- 96
2020-11-17 07:00:00 -0.1 2 Sudoeste 3 Sudoeste 0 -- -- 96
2020-11-17 06:00:00 0 0 Calma 3 Sudoeste 0 -- -- 95
2020-11-17 05:00:00 0.2 0 Calma 3 Oeste 0 -- -- 94
2020-11-17 04:00:00 0.5 0 Calma -- -- 0 -- -- 94
2020-11-17 03:00:00 0.6 0 Calma 3 Oeste 0 -- -- 93
2020-11-17 02:00:00 0.9 0 Calma 4 Sudoeste 0 -- -- 92
2020-11-17 01:00:00 1.3 0 Calma 3 Oeste 0 -- -- 91
2020-11-17 00:00:00 1.7 2 Sudoeste 4 Sudoeste 0 -- -- 90
2020-11-16 23:00:00 2.1 3 Sudoeste 4 Sudoeste 0 -- -- 85
2020-11-16 22:00:00 2.7 0 Calma 4 Oeste 0 -- -- 82
2020-11-16 21:00:00 3.9 0 Calma 4 Oeste 0 -- -- 82
2020-11-16 20:00:00 5.8 0 Calma 7 Oeste 0 -- -- 85
2020-11-16 19:00:00 8.2 3 Oeste 7 Sudoeste 0 -- -- 85
2020-11-16 18:00:00 10.8 0 Calma 16 Oeste 0 -- -- 75
2020-11-16 17:00:00 13.8 9 Noroeste 29 Oeste 0 -- -- 63
2020-11-16 16:00:00 16.7 7 Nordeste 16 Norte 0 -- -- 58
2020-11-16 15:00:00 17.4 3 Nordeste 11 Nordeste 0 -- -- 50
2020-11-16 14:00:00 18 3 Nordeste 10 Norte 0 -- -- 49
2020-11-16 13:00:00 17.9 3 Este 10 Este 0 -- -- 44
2020-11-16 12:00:00 16.3 2 Este 13 Noroeste 0 -- -- 49
2020-11-16 11:00:00 15.1 3 Nordeste 13 Noroeste 0 -- -- 56
2020-11-16 10:00:00 12.8 3 Sudoeste 15 Noroeste 0 -- -- 73
2020-11-16 09:00:00 10.3 4 Nordeste 16 Noroeste 0 -- -- 75
2020-11-16 08:00:00 9.3 3 Noroeste 17 Noroeste 0 -- -- 88
2020-11-16 07:00:00 10.6 4 Oeste 20 Oeste 0 -- -- 83
2020-11-16 06:00:00 11.4 5 Oeste 18 Oeste 0.2 -- -- 82
2020-11-16 05:00:00 11.5 8 Oeste 27 Oeste 0.2 -- -- 85
2020-11-16 04:00:00 11.6 9 Oeste 26 Noroeste 0.6 -- -- 89
2020-11-16 03:00:00 11.7 5 Oeste 29 Oeste 0.2 -- -- 89
2020-11-16 02:00:00 11.6 9 Oeste 24 Oeste 0.4 -- -- 87
2020-11-16 01:00:00 12.1 10 Oeste 31 Noroeste 0.2 -- -- 82
2020-11-16 00:00:00 13.3 13 Oeste 36 Oeste 0 -- -- 79
2020-11-15 23:00:00 13.7 9 Oeste 27 Sudoeste 0 -- -- 76
2020-11-15 22:00:00 13.8 6 Oeste 26 Oeste 0 -- -- 72
2020-11-15 21:00:00 13.8 8 Oeste 36 Sudoeste 0 -- -- 71
2020-11-15 20:00:00 14.1 10 Oeste 41 Sudoeste 0 -- -- 70
2020-11-15 19:00:00 14.1 9 Oeste 28 Sudoeste 0 -- -- 69
2020-11-15 18:00:00 14.5 8 Oeste 29 Sudoeste 0 -- -- 67
2020-11-15 17:00:00 15.3 9 Oeste 46 Oeste 0 -- -- 66
2020-11-15 16:00:00 15.3 8 Oeste 30 Noroeste 0 -- -- 69
2020-11-15 15:00:00 15.7 6 Sudoeste 18 Oeste 0 -- -- 66
2020-11-15 14:00:00 15.7 6 Norte 39 Noroeste 0 -- -- 69
2020-11-15 13:00:00 15.7 6 Oeste 23 Oeste 0 -- -- 66
2020-11-15 12:00:00 12.9 4 Nordeste 21 Nordeste 0 -- -- 84
2020-11-15 11:00:00 13 9 Oeste 28 Sudoeste 0 -- -- 81
2020-11-15 10:00:00 9.1 4 Nordeste 12 Nordeste 0 -- -- 97
2020-11-15 09:00:00 8.3 3 Nordeste 14 Este 0 -- -- 97
2020-11-15 08:00:00 8 3 Nordeste 8 Nordeste 0 -- -- 97
2020-11-15 07:00:00 8 2 Nordeste 6 Este 0 -- -- 97
2020-11-15 06:00:00 7.9 0 Calma 6 Este 0 -- -- 97
2020-11-15 05:00:00 7.8 0 Calma 2 Sudeste 0 -- -- 97
2020-11-15 04:00:00 7.8 0 Calma 4 Sudeste 0 -- -- 97
2020-11-15 03:00:00 7.8 0 Calma 3 Sudeste 0 -- -- 97
2020-11-15 02:00:00 7.8 0 Calma 3 Sudeste 0 -- -- 97
2020-11-15 01:00:00 7.8 0 Calma 4 Sudeste 0 -- -- 96
2020-11-15 00:00:00 8.3 0 Calma 4 Oeste 0 -- -- 97
2020-11-14 23:00:00 8.4 0 Calma 5 Este 0 -- -- 97
2020-11-14 22:00:00 8.4 0 Calma 2 Sudoeste 0 -- -- 96
2020-11-14 21:00:00 8.6 0 Calma 2 Sudoeste 0 -- -- 96
2020-11-14 20:00:00 8.8 0 Calma 3 Este 0.2 -- -- 95
2020-11-14 19:00:00 9.1 0 Calma 2 Norte 0 -- -- 91
2020-11-14 18:00:00 9.8 0 Calma 3 Este 0 -- -- 88
2020-11-14 17:00:00 10.3 0 Calma 5 Este 0 -- -- 85
2020-11-14 16:00:00 10.5 0 Calma 5 Nordeste 0 -- -- 84
2020-11-14 15:00:00 10.5 3 Este 7 Este 0 -- -- 83
2020-11-14 14:00:00 9.4 0 Calma 4 Nordeste 0.2 -- -- 89
2020-11-14 13:00:00 9.1 0 Calma 3 Este 0 -- -- 89
2020-11-14 12:00:00 8 0 Calma 0 Calma 0.2 -- -- 94
2020-11-14 11:00:00 7.2 0 Calma 2 Sudeste 0 -- -- 94
2020-11-14 10:00:00 6.6 0 Calma 0 Calma 0 -- -- 97
2020-11-14 09:00:00 5.5 0 Calma 0 Calma 0 -- -- 98
2020-11-14 08:00:00 5.2 0 Calma 2 Sur 0 -- -- 97
2020-11-14 07:00:00 4.9 0 Calma 2 Sur 0 -- -- 97
2020-11-14 06:00:00 4.7 0 Calma 2 Oeste 0 -- -- 97
2020-11-14 05:00:00 4.7 0 Calma 2 Sudoeste 0 -- -- 97
2020-11-14 04:00:00 4.6 0 Calma 2 Noroeste 0 -- -- 97
2020-11-14 03:00:00 4.6 0 Calma 0 Calma 0 -- -- 96
2020-11-14 02:00:00 4.6 0 Calma 2 Sur 0 -- -- 95
2020-11-14 01:00:00 5.6 0 Calma 2 Oeste 0 -- -- 95
2020-11-14 00:00:00 5.5 0 Calma 2 Sudoeste 0 -- -- 95
2020-11-13 23:00:00 5.5 0 Calma 2 Sudoeste 0 -- -- 94
2020-11-13 22:00:00 5.7 0 Calma 0 Calma 0 -- -- 94
2020-11-13 21:00:00 6 0 Calma 2 Sudoeste 0 -- -- 93
2020-11-13 20:00:00 6.4 0 Calma 3 Sudoeste 0 -- -- 92
2020-11-13 19:00:00 6.7 0 Calma 4 Norte 0 -- -- 90
2020-11-13 18:00:00 8.7 0 Calma 7 Norte 0 -- -- 82
2020-11-13 17:00:00 10.9 0 Calma 6 Nordeste 0 -- -- 76
2020-11-13 16:00:00 13 3 Nordeste 9 Nordeste 0 -- -- 65
2020-11-13 15:00:00 12.7 3 Nordeste 10 Nordeste 0 -- -- 64
2020-11-13 14:00:00 13.3 3 Nordeste 9 Nordeste 0 -- -- 59
2020-11-13 13:00:00 13.3 3 Nordeste 9 Este 0 -- -- 62
2020-11-13 12:00:00 11.2 3 Nordeste 9 Norte 0 -- -- 67
2020-11-13 11:00:00 7.8 0 Calma 3 Norte 0 -- -- 78
2020-11-13 10:00:00 4.2 0 Calma 2 Sur 0 -- -- 98
2020-11-13 09:00:00 1.4 0 Calma 2 Sur 0 -- -- 98
2020-11-13 08:00:00 0.8 0 Calma 3 Sudoeste 0 -- -- 97
2020-11-13 07:00:00 1.4 0 Calma 3 Oeste 0 -- -- 96
2020-11-13 06:00:00 2.2 0 Calma 2 Oeste 0 -- -- 96
2020-11-13 05:00:00 2.3 0 Calma 3 Oeste 0 -- -- 96
2020-11-13 04:00:00 2.8 0 Calma 2 Sudoeste 0 -- -- 95
2020-11-13 03:00:00 3.1 0 Calma 2 Sudoeste 0 -- -- 95
2020-11-13 02:00:00 3.5 0 Calma 2 Sudoeste 0 -- -- 94
2020-11-13 01:00:00 3.6 0 Calma 3 Sudoeste 0 -- -- 94
2020-11-13 00:00:00 3.6 0 Calma 2 Oeste 0 -- -- 94
2020-11-12 23:00:00 3.8 2 Sudoeste 3 Oeste 0 -- -- 93
2020-11-12 22:00:00 4.3 0 Calma 2 Sudoeste 0 -- -- 93
2020-11-12 21:00:00 5.1 0 Calma 3 Sur 0 -- -- 91
2020-11-12 20:00:00 6 0 Calma 2 Sudoeste 0 -- -- 89
2020-11-12 19:00:00 6.9 0 Calma 3 Norte 0 -- -- 87
2020-11-12 18:00:00 10 0 Calma 6 Nordeste 0 -- -- 75
2020-11-12 17:00:00 12.8 2 Nordeste 10 Nordeste 0 -- -- 60
2020-11-12 16:00:00 13.9 3 Nordeste 8 Este 0 -- -- 54
2020-11-12 15:00:00 14.4 3 Este 11 Sudeste 0 -- -- 42
2020-11-12 14:00:00 14.2 2 Nordeste 5 Nordeste 0 -- -- 37
2020-11-12 13:00:00 13.6 2 Sur 4 Sur 0 -- -- 47
2020-11-12 12:00:00 10.1 0 Calma 3 Norte 0 -- -- 66
2020-11-12 11:00:00 8.2 0 Calma 4 Nordeste 0 -- -- 80
2020-11-12 10:00:00 5.5 0 Calma 4 Sur 0 -- -- 97
2020-11-12 09:00:00 2.6 0 Calma 2 Oeste 0 -- -- 98
2020-11-12 08:00:00 2.4 0 Calma 3 Oeste 0 -- -- 97
2020-11-12 07:00:00 2.8 0 Calma 4 Oeste 0 -- -- 97
2020-11-12 06:00:00 2.8 0 Calma 5 Oeste 0 -- -- 97
2020-11-12 05:00:00 2.8 0 Calma 4 Oeste 0 -- -- 97
2020-11-12 04:00:00 2.9 0 Calma 3 Noroeste 0 -- -- 97
2020-11-12 03:00:00 3.3 0 Calma 3 Sudoeste 0 -- -- 97
2020-11-12 02:00:00 3.2 0 Calma 4 Sudoeste 0 -- -- 97
2020-11-12 01:00:00 3 0 Calma 4 Sudoeste 0 -- -- 96
2020-11-12 00:00:00 3.2 0 Calma 3 Sudoeste 0 -- -- 97
2020-11-11 23:00:00 2.8 3 Sudoeste 4 Sudoeste 0 -- -- 96
2020-11-11 22:00:00 2.7 2 Sur 4 Noroeste 0 -- -- 95
2020-11-11 21:00:00 3.5 0 Calma 3 Sudoeste 0 -- -- 94
2020-11-11 20:00:00 4.9 0 Calma 3 Oeste 0 -- -- 92
2020-11-11 19:00:00 6.6 0 Calma 3 Sur 0 -- -- 89
2020-11-11 18:00:00 10.5 0 Calma 10 Norte 0 -- -- 76
2020-11-11 17:00:00 12.7 4 Nordeste 11 Nordeste 0 -- -- 68
2020-11-11 16:00:00 15.2 3 Nordeste 10 Nordeste 0 -- -- 58
2020-11-11 15:00:00 15.5 4 Nordeste 9 Este 0 -- -- 56
2020-11-11 14:00:00 14.4 3 Nordeste 9 Nordeste 0 -- -- 56
2020-11-11 13:00:00 13.5 4 Este 9 Norte 0 -- -- 60
2020-11-11 12:00:00 11.8 4 Nordeste 10 Este 0 -- -- 66
2020-11-11 11:00:00 9.8 2 Este 4 Este 0 -- -- 75
2020-11-11 10:00:00 6.2 0 Calma 2 Sudeste 0 -- -- 97
2020-11-11 09:00:00 1.4 0 Calma 2 Oeste 0 -- -- 99
2020-11-11 08:00:00 0.5 0 Calma 3 Oeste 0 -- -- 98
2020-11-11 07:00:00 0.6 0 Calma 3 Sudoeste 0 -- -- 98
2020-11-11 06:00:00 0.6 0 Calma 3 Sudoeste 0 -- -- 97
2020-11-11 05:00:00 0.9 0 Calma 3 Sudoeste 0 -- -- 97
2020-11-11 04:00:00 0.8 0 Calma 3 Oeste 0 -- -- 97
2020-11-11 03:00:00 1 0 Calma 3 Sudoeste 0 -- -- 97
2020-11-11 02:00:00 1.3 0 Calma 2 Oeste 0 -- -- 97
2020-11-11 01:00:00 1.7 0 Calma 3 Sudoeste 0 -- -- 97
2020-11-11 00:00:00 1.8 0 Calma 3 Oeste 0 -- -- 96
2020-11-10 23:00:00 2.5 0 Calma 3 Oeste 0 -- -- 96
2020-11-10 22:00:00 3.2 2 Oeste 4 Oeste 0 -- -- 94
2020-11-10 21:00:00 4.4 2 Oeste 5 Sudoeste 0 -- -- 93
2020-11-10 20:00:00 6.2 2 Sudoeste 4 Sudoeste 0 -- -- 91
2020-11-10 19:00:00 7.7 2 Sudoeste 4 Sur 0 -- -- 88
2020-11-10 18:00:00 9.6 2 Sur 8 Nordeste 0 -- -- 81
2020-11-10 17:00:00 13.1 4 Norte 11 Norte 0 -- -- 62
2020-11-10 16:00:00 16 4 Nordeste 12 Este 0 -- -- 53
2020-11-10 15:00:00 14.2 0 Calma 15 Este 0 -- -- 57
2020-11-10 14:00:00 14.5 2 Noroeste 9 Nordeste 0 -- -- 54
2020-11-10 13:00:00 13.8 5 Nordeste 8 Este 0 -- -- 57
2020-11-10 12:00:00 12.7 4 Este 8 Este 0 -- -- 62
2020-11-10 11:00:00 10.5 0 Calma 5 Sur 0 -- -- 71
2020-11-10 10:00:00 6.4 0 Calma 3 Oeste 0 -- -- 94
2020-11-10 09:00:00 1.5 0 Calma 3 Sudoeste 0.2 -- -- 99
2020-11-10 08:00:00 0.2 0 Calma 3 Sudoeste 0 -- -- 98
2020-11-10 07:00:00 0.6 0 Calma 4 Sudoeste 0 -- -- 98
2020-11-10 06:00:00 0.9 0 Calma 4 Sur 0 -- -- 97
2020-11-10 05:00:00 1.3 0 Calma 4 Sudoeste 0 -- -- 97
2020-11-10 04:00:00 1.4 2 Sudoeste 8 Sur 0 -- -- 97
2020-11-10 03:00:00 1.6 0 Calma 6 Sudoeste 0 -- -- 98
2020-11-10 02:00:00 2 3 Sudoeste 6 Oeste 0 -- -- 97
2020-11-10 01:00:00 2 2 Sudoeste 5 Oeste 0 -- -- 97
2020-11-10 00:00:00 2.6 0 Calma 5 Oeste 0 -- -- 96
2020-11-09 23:00:00 3.3 2 Sudoeste 7 Sudoeste 0 -- -- 96
2020-11-09 22:00:00 4 0 Calma 6 Sur 0 -- -- 95
2020-11-09 21:00:00 5 3 Sudoeste 5 Sur 0 -- -- 94
2020-11-09 20:00:00 6.7 2 Sudoeste 4 Sudoeste 0 -- -- 92
2020-11-09 19:00:00 8.9 2 Sudoeste 6 Sur 0.2 -- -- 90
2020-11-09 18:00:00 10.5 2 Norte 7 Oeste 0 -- -- 76
2020-11-09 17:00:00 11.7 2 Noroeste 9 Noroeste 0 -- -- 68
2020-11-09 16:00:00 13 0 Calma 8 Nordeste 0 -- -- 68
2020-11-09 15:00:00 12.1 0 Calma 7 Sur 0 -- -- 71
2020-11-09 14:00:00 12.3 3 Sudoeste 7 Sudoeste 0 -- -- 73
2020-11-09 13:00:00 10.4 2 Noroeste 5 Noroeste 0 -- -- 79
2020-11-09 12:00:00 10 2 Noroeste 6 Norte 0 -- -- 82
2020-11-09 11:00:00 9.4 3 Sudeste 6 Sudeste 0 -- -- 87
2020-11-09 10:00:00 7.2 2 Sur 4 Sur 0 -- -- 98
2020-11-09 09:00:00 5.2 0 Calma 3 Noroeste 0 -- -- 97
2020-11-09 08:00:00 5.2 0 Calma 9 Oeste 0 -- -- 95
2020-11-09 07:00:00 6.6 2 Noroeste 6 Noroeste 0 -- -- 96
2020-11-09 06:00:00 7.5 3 Nordeste 8 Norte 0.8 -- -- 97
2020-11-09 05:00:00 7.4 2 Noroeste 4 Oeste 0.4 -- -- 97
2020-11-09 04:00:00 7.2 0 Calma 4 Noroeste 0.8 -- -- 97
2020-11-09 03:00:00 7.1 0 Calma 3 Sur 0.2 -- -- 97
2020-11-09 02:00:00 7.2 0 Calma 4 Oeste 0.2 -- -- 96
2020-11-09 01:00:00 7.4 0 Calma 5 Sudeste 0.2 -- -- 96
2020-11-09 00:00:00 7.4 0 Calma 5 Sur 0 -- -- 96
2020-11-08 23:00:00 7.2 0 Calma 3 Sudoeste 0 -- -- 96
2020-11-08 22:00:00 7 2 Sudoeste 4 Sudoeste 0 -- -- 95
2020-11-08 21:00:00 7.4 0 Calma 3 Sudoeste 0 -- -- 93
2020-11-08 20:00:00 7.8 0 Calma 3 Sur 0 -- -- 92
2020-11-08 19:00:00 8.3 0 Calma 8 Noroeste 0 -- -- 87
2020-11-08 18:00:00 9.2 0 Calma 9 Oeste 0 -- -- 81
2020-11-08 17:00:00 11.1 3 Oeste 12 Nordeste 0 -- -- 72
2020-11-08 16:00:00 12.3 5 Nordeste 19 Norte 0 -- -- 66
2020-11-08 15:00:00 14.6 7 Sur 15 Sur 0 -- -- 56
2020-11-08 14:00:00 14.6 5 Sudeste 18 Este 0 -- -- 54
2020-11-08 13:00:00 11.5 3 Nordeste 9 Este 0 -- -- 71
2020-11-08 12:00:00 10.6 0 Calma 8 Este 0 -- -- 77
2020-11-08 11:00:00 9 3 Nordeste 9 Nordeste 0 -- -- 85
2020-11-08 10:00:00 8.4 4 Este 6 Este 0 -- -- 88
2020-11-08 09:00:00 6.9 0 Calma 3 Sudeste 0 -- -- 95
2020-11-08 08:00:00 6.6 0 Calma 4 Este 0 -- -- 96
2020-11-08 07:00:00 6.7 3 Este 7 Nordeste 0 -- -- 96
2020-11-08 06:00:00 6.8 0 Calma 6 Nordeste 0 -- -- 97
2020-11-08 05:00:00 6.6 0 Calma 4 Sur 0 -- -- 97
2020-11-08 04:00:00 6.3 0 Calma 5 Este 0 -- -- 96
2020-11-08 03:00:00 6.6 0 Calma 4 Sur 0 -- -- 95
2020-11-08 02:00:00 7.3 0 Calma 2 Sudoeste 0 -- -- 97
2020-11-08 01:00:00 7.3 0 Calma 2 Sudeste 0 -- -- 97
2020-11-08 00:00:00 7.1 0 Calma 3 Oeste 0 -- -- 97
2020-11-07 23:00:00 6.8 0 Calma 5 Sudoeste 0 -- -- 97
2020-11-07 22:00:00 6.2 0 Calma 7 Sur 0 -- -- 97
2020-11-07 21:00:00 7.1 2 Oeste 5 Sudeste 0 -- -- 93
2020-11-07 20:00:00 8.6 0 Calma 6 Sur 0 -- -- 94
2020-11-07 19:00:00 9.2 3 Oeste 6 Este 0 -- -- 92
2020-11-07 18:00:00 10.7 0 Calma 6 Este 0 -- -- 86
2020-11-07 17:00:00 12.1 0 Calma 12 Sur 0 -- -- 77
2020-11-07 16:00:00 13.5 6 Oeste 15 Noroeste 0 -- -- 71
2020-11-07 15:00:00 12.1 0 Calma 13 Sur 0.2 -- -- 79
2020-11-07 14:00:00 10.7 0 Calma 10 Oeste 0.2 -- -- 84
2020-11-07 13:00:00 10.5 3 Sur 11 Sur 0.2 -- -- 84
2020-11-07 12:00:00 10.7 0 Calma 10 Este 0 -- -- 85
2020-11-07 11:00:00 10.1 3 Nordeste 9 Nordeste 0.2 -- -- 91
2020-11-07 10:00:00 8.9 0 Calma 6 Sudoeste 0 -- -- 95
2020-11-07 09:00:00 8.5 0 Calma 4 Sur 0.6 -- -- 97
2020-11-07 08:00:00 8.3 2 Norte 6 Nordeste 0.6 -- -- 96
2020-11-07 07:00:00 8.5 2 Sudoeste 6 Sudeste 3.2 -- -- 95
2020-11-07 06:00:00 8.8 5 Oeste 20 Oeste 0 -- -- 92
2020-11-07 05:00:00 8.5 5 Noroeste 26 Este 0 -- -- 92
2020-11-07 04:00:00 8.4 4 Oeste 21 Norte 3 -- -- 93
2020-11-07 03:00:00 8.6 5 Sudoeste 23 Oeste 7.4 -- -- 92
2020-11-07 02:00:00 8.8 3 Sudoeste 26 Sudoeste 4.6 -- -- 86
2020-11-07 01:00:00 9.9 5 Sudoeste 29 Sudoeste 6 -- -- 89
2020-11-07 00:00:00 11.4 9 Sur 43 Sur 1.4 -- -- 86
2020-11-06 23:00:00 11.7 15 Sur 50 Sur 1.8 -- -- 85
2020-11-06 22:00:00 11.8 10 Sur 40 Sudeste 3 -- -- 86
2020-11-06 21:00:00 11.8 11 Sur 54 Sudeste 6.2 -- -- 88
2020-11-06 20:00:00 12 9 Sur 26 Sur 2.4 -- -- 87
2020-11-06 19:00:00 12.6 10 Sudeste 39 Este 0 -- -- 82
2020-11-06 18:00:00 12.5 4 Sudeste 35 Sudeste 2.2 -- -- 86
2020-11-06 17:00:00 14.4 6 Sudeste 31 Sudeste 0 -- -- 74
2020-11-06 16:00:00 14.7 10 Sudeste 40 Este 0 -- -- 74
2020-11-06 15:00:00 14.8 14 Sur 36 Sudeste 0 -- -- 70
2020-11-06 14:00:00 15.3 10 Sudeste 31 Sudeste 0 -- -- 70
2020-11-06 13:00:00 15.9 6 Este 33 Este 0 -- -- 68
2020-11-06 12:00:00 15.5 10 Sudeste 34 Sudeste 0 -- -- 67
2020-11-06 11:00:00 14.6 9 Este 29 Este 0 -- -- 73
2020-11-06 10:00:00 11.6 6 Este 17 Nordeste 0 -- -- 86
2020-11-06 09:00:00 9.4 3 Este 13 Norte 0 -- -- 93
2020-11-06 08:00:00 8.3 0 Calma 4 Norte 0 -- -- 96
2020-11-06 07:00:00 9.2 2 Nordeste 8 Norte 0 -- -- 92
2020-11-06 06:00:00 9.3 3 Norte 6 Norte 0 -- -- 91
2020-11-06 05:00:00 9.6 2 Sudeste 7 Este 0 -- -- 89
2020-11-06 04:00:00 9.5 2 Sudoeste 10 Nordeste 0 -- -- 92
2020-11-06 03:00:00 9.5 3 Nordeste 8 Norte 0 -- -- 92
2020-11-06 02:00:00 9.9 3 Nordeste 18 Este 0 -- -- 89
2020-11-06 01:00:00 10 9 Sudeste 32 Sudeste 0 -- -- 89
2020-11-06 00:00:00 9.7 8 Sudeste 24 Este 0 -- -- 90
2020-11-05 23:00:00 9.1 5 Este 21 Sudeste 0 -- -- 93
2020-11-05 22:00:00 9.1 6 Este 19 Nordeste 0 -- -- 91
2020-11-05 21:00:00 9 5 Nordeste 25 Este 0.2 -- -- 91
2020-11-05 20:00:00 9.2 8 Este 32 Sudeste 3.4 -- -- 89
2020-11-05 19:00:00 9.3 6 Este 32 Este 4.4 -- -- 90
2020-11-05 18:00:00 9.4 11 Sur 42 Sudeste 8.2 -- -- 86
2020-11-05 17:00:00 9 0 Calma 18 Sudeste 2.8 -- -- 93
2020-11-05 16:00:00 9.8 9 Sudeste 42 Sudeste 1.8 -- -- 86
2020-11-05 15:00:00 10 10 Sudeste 36 Este 1.8 -- -- 88
2020-11-05 14:00:00 9.7 7 Este 28 Sur 0.8 -- -- 91
2020-11-05 13:00:00 8.8 5 Este 18 Este 1.6 -- -- 92
2020-11-05 12:00:00 8.4 6 Este 17 Este 1.6 -- -- 92
2020-11-05 11:00:00 7.9 6 Este 29 Nordeste 3.8 -- -- 92
2020-11-05 10:00:00 7.3 9 Este 20 Sudeste 4.2 -- -- 91
2020-11-05 09:00:00 7.2 11 Este 24 Este 1.6 -- -- 89
2020-11-05 08:00:00 7.1 8 Nordeste 21 Nordeste 0.2 -- -- 87
2020-11-05 07:00:00 7.2 6 Nordeste 18 Norte 0 -- -- 86
2020-11-05 06:00:00 7.2 5 Nordeste 21 Este 0 -- -- 85
2020-11-05 05:00:00 7.2 5 Nordeste 17 Norte 0 -- -- 87
2020-11-05 04:00:00 6.9 5 Nordeste 15 Este 0 -- -- 90
2020-11-05 03:00:00 6.8 4 Nordeste 18 Nordeste 0 -- -- 91
2020-11-05 02:00:00 7 6 Este 20 Este 0 -- -- 90
2020-11-05 01:00:00 6 0 Calma 14 Nordeste 2 -- -- 96
2020-11-05 00:00:00 5.7 3 Nordeste 9 Nordeste 1.6 -- -- 96
2020-11-04 23:00:00 5.6 5 Nordeste 13 Este 1.2 -- -- 95
2020-11-04 22:00:00 5.6 4 Nordeste 13 Este 1 -- -- 95
2020-11-04 21:00:00 5.7 5 Nordeste 13 Nordeste 0 -- -- 93
2020-11-04 20:00:00 5.7 2 Nordeste 7 Norte 0.2 -- -- 93
2020-11-04 19:00:00 5.8 0 Calma 5 Nordeste 0.2 -- -- 94
2020-11-04 18:00:00 5.8 3 Norte 9 Norte 0.8 -- -- 93
2020-11-04 17:00:00 6.6 2 Norte 8 Este 0.2 -- -- 88
2020-11-04 16:00:00 7.5 0 Calma 8 Norte 0 -- -- 71
2020-11-04 15:00:00 7.7 3 Nordeste 10 Nordeste 0 -- -- 71
2020-11-04 14:00:00 8 3 Nordeste 8 Nordeste 0 -- -- 72
2020-11-04 13:00:00 7.5 0 Calma 6 Sur 0 -- -- 80
2020-11-04 12:00:00 7.7 2 Nordeste 6 Norte 0 -- -- 76
2020-11-04 11:00:00 7.5 3 Nordeste 8 Norte 0 -- -- 80
2020-11-04 10:00:00 6.6 0 Calma 4 Norte 0 -- -- 89
2020-11-04 09:00:00 5.5 0 Calma 4 Nordeste 0 -- -- 93
2020-11-04 08:00:00 5 0 Calma 2 Oeste 0 -- -- 96
2020-11-04 07:00:00 4.5 0 Calma 3 Sudeste 0 -- -- 96
2020-11-04 06:00:00 4.3 0 Calma 4 Oeste 0 -- -- 94
2020-11-04 05:00:00 5 0 Calma 3 Oeste 0 -- -- 93
2020-11-04 04:00:00 5.8 2 Sudeste 4 Sudeste 0 -- -- 93
2020-11-04 03:00:00 5.7 0 Calma 3 Oeste 0 -- -- 92
2020-11-04 02:00:00 6.6 0 Calma 2 Noroeste 0 -- -- 89
2020-11-04 01:00:00 7.5 0 Calma 2 Norte 0 -- -- 89
2020-11-04 00:00:00 8.2 0 Calma 3 Este 0 -- -- 89
2020-11-03 23:00:00 8.6 0 Calma 4 Nordeste 0 -- -- 84
2020-11-03 22:00:00 8.8 0 Calma 7 Norte 0 -- -- 82
2020-11-03 21:00:00 8.6 0 Calma 4 Norte 0 -- -- 84
2020-11-03 20:00:00 9.1 0 Calma 10 Oeste 0 -- -- 81
2020-11-03 19:00:00 10 5 Oeste 14 Oeste 0 -- -- 76
2020-11-03 18:00:00 10.9 5 Oeste 20 Noroeste 0 -- -- 73
2020-11-03 17:00:00 11.2 7 Oeste 21 Oeste 0 -- -- 73
2020-11-03 16:00:00 12.6 6 Oeste 22 Noroeste 0 -- -- 69
2020-11-03 15:00:00 14.1 6 Noroeste 19 Noroeste 0 -- -- 65
2020-11-03 14:00:00 13.6 5 Noroeste 22 Oeste 0 -- -- 68
2020-11-03 13:00:00 13.7 4 Noroeste 14 Nordeste 0 -- -- 72
2020-11-03 12:00:00 13.2 0 Calma 4 Noroeste 0 -- -- 77
2020-11-03 11:00:00 12 0 Calma 16 Oeste 0 -- -- 81
2020-11-03 10:00:00 11.4 2 Este 34 Oeste 0 -- -- 84
2020-11-03 09:00:00 10.8 5 Oeste 29 Noroeste 0.4 -- -- 90
2020-11-03 08:00:00 12.1 3 Sudoeste 18 Sur 0 -- -- 80
2020-11-03 07:00:00 10.9 2 Norte 12 Norte 0 -- -- 90
2020-11-03 06:00:00 9.7 0 Calma 4 Sur 0 -- -- 92
2020-11-03 05:00:00 9.7 0 Calma 4 Sudoeste 0 -- -- 90
2020-11-03 04:00:00 9.9 2 Sur 5 Sudeste 0 -- -- 89
2020-11-03 03:00:00 9.1 2 Sudoeste 4 Sudoeste 0 -- -- 90
2020-11-03 02:00:00 9.2 0 Calma 4 Oeste 0 -- -- 92
2020-11-03 01:00:00 9.4 0 Calma 2 Oeste 0 -- -- 91
2020-11-03 00:00:00 10.1 0 Calma 6 Sudoeste 0 -- -- 89
2020-11-02 23:00:00 10.2 0 Calma 4 Sur 0 -- -- 89
2020-11-02 22:00:00 11.1 0 Calma 5 Sur 0 -- -- 87
2020-11-02 21:00:00 11.6 0 Calma 4 Sur 0 -- -- 86
2020-11-02 20:00:00 12.5 0 Calma 4 Sur 0 -- -- 83
2020-11-02 19:00:00 13.7 2 Oeste 8 Oeste 0 -- -- 77
2020-11-02 18:00:00 16 0 Calma 10 Oeste 0 -- -- 62
2020-11-02 17:00:00 17.6 4 Norte 13 Este 0 -- -- 62
2020-11-02 16:00:00 19.5 5 Este 20 Noroeste 0 -- -- 53
2020-11-02 15:00:00 20.6 6 Oeste 22 Oeste 0 -- -- 41
2020-11-02 14:00:00 20.9 6 Noroeste 24 Noroeste 0 -- -- 44
2020-11-02 13:00:00 21.2 7 Oeste 22 Noroeste 0 -- -- 41
2020-11-02 12:00:00 20.2 10 Noroeste 24 Noroeste 0 -- -- 46
2020-11-02 11:00:00 17.6 3 Este 7 Este 0 -- -- 57
2020-11-02 10:00:00 12.8 0 Calma 4 Sudeste 0 -- -- 75
2020-11-02 09:00:00 8.8 0 Calma 5 Sur 0 -- -- 97
2020-11-02 08:00:00 7.1 0 Calma 3 Sudoeste 0 -- -- 97
2020-11-02 07:00:00 7.1 0 Calma 4 Sur 0 -- -- 97
2020-11-02 06:00:00 7 0 Calma 3 Noroeste 0 -- -- 97
2020-11-02 05:00:00 6.7 0 Calma 3 Sudeste 0 -- -- 97
2020-11-02 04:00:00 6.3 0 Calma 3 Oeste 0 -- -- 97
2020-11-02 03:00:00 5.3 0 Calma 4 Sudoeste 0 -- -- 97
2020-11-02 02:00:00 5.2 0 Calma 4 Sur 0 -- -- 96
2020-11-02 01:00:00 5.4 0 Calma 5 Oeste 0 -- -- 96
2020-11-02 00:00:00 5.4 0 Calma 3 Oeste 0 -- -- 94
2020-11-01 23:00:00 5.8 0 Calma 3 Sudoeste 0 -- -- 94
2020-11-01 22:00:00 6.5 0 Calma 3 Oeste 0 -- -- 92
2020-11-01 21:00:00 7.2 0 Calma 4 Sudoeste 0 -- -- 90
2020-11-01 20:00:00 8.6 0 Calma 4 Oeste 0 -- -- 85
2020-11-01 19:00:00 10.5 0 Calma 5 Sudoeste 0 -- -- 79
2020-11-01 18:00:00 14.1 0 Calma 6 Oeste 0 -- -- 68
2020-11-01 17:00:00 19.9 0 Calma 10 Norte 0 -- -- 44
2020-11-01 16:00:00 19.8 3 Nordeste 10 Nordeste 0 -- -- 47
2020-11-01 15:00:00 21.2 4 Nordeste 9 Norte 0 -- -- 39
2020-11-01 14:00:00 21.3 2 Este 10 Este 0 -- -- 33
2020-11-01 13:00:00 19.7 4 Nordeste 10 Norte 0 -- -- 37
2020-11-01 12:00:00 17.6 2 Nordeste 7 Nordeste 0 -- -- 39
2020-11-01 11:00:00 15.2 0 Calma 5 Este 0 -- -- 54
2020-11-01 10:00:00 10.5 0 Calma 3 Sur 0 -- -- 78
2020-11-01 09:00:00 5 0 Calma 4 Oeste 0 -- -- 98
2020-11-01 08:00:00 2.6 0 Calma 4 Noroeste 0 -- -- 98
2020-11-01 07:00:00 2.6 0 Calma 6 Sur 0 -- -- 97
2020-11-01 06:00:00 3.2 2 Oeste 6 Sur 0 -- -- 97
2020-11-01 05:00:00 3.6 0 Calma 6 Oeste 0 -- -- 97
2020-11-01 04:00:00 3.6 0 Calma 7 Oeste 0 -- -- 97
2020-11-01 03:00:00 3.5 0 Calma 6 Sudeste 0 -- -- 96
2020-11-01 02:00:00 4 0 Calma 6 Sur 0 -- -- 96
2020-11-01 01:00:00 4.3 0 Calma 6 Sudoeste 0 -- -- 96
2020-11-01 00:00:00 4.6 2 Sudoeste 4 Oeste 0 -- -- 96
2020-10-31 23:00:00 5 0 Calma 8 Oeste 0 -- -- 95
2020-10-31 22:00:00 5.5 2 Sudoeste 6 Sur 0 -- -- 94
2020-10-31 21:00:00 6.1 2 Sudoeste 5 Oeste 0 -- -- 92
2020-10-31 20:00:00 7.5 0 Calma 6 Oeste 0 -- -- 88
2020-10-31 19:00:00 9 0 Calma 4 Sudoeste 0 -- -- 84
2020-10-31 18:00:00 12.1 0 Calma 6 Oeste 0 -- -- 74
2020-10-31 17:00:00 18.4 4 Oeste 18 Oeste 0 -- -- 50
2020-10-31 16:00:00 18.4 9 Noroeste 22 Oeste 0 -- -- 47
2020-10-31 15:00:00 18.7 8 Noroeste 21 Noroeste 0 -- -- 43
2020-10-31 14:00:00 20.1 12 Oeste 29 Oeste 0 -- -- 38
2020-10-31 13:00:00 21.1 2 Este 11 Sudeste 0 -- -- 33
2020-10-31 12:00:00 20 4 Sur 18 Oeste 0 -- -- 38
2020-10-31 11:00:00 15.8 2 Este 11 Oeste 0 -- -- 57
2020-10-31 10:00:00 9.8 0 Calma 5 Sudeste 0 -- -- 84
2020-10-31 09:00:00 4.5 0 Calma 4 Sudoeste 0 -- -- 99
2020-10-31 08:00:00 1.8 0 Calma 5 Sur 0 -- -- 98
2020-10-31 07:00:00 1.9 2 Oeste 5 Sudoeste 0 -- -- 97
2020-10-31 06:00:00 1.3 0 Calma 5 Sudoeste 0 -- -- 97
2020-10-31 05:00:00 1.6 0 Calma 6 Sur 0 -- -- 97
2020-10-31 04:00:00 1.8 0 Calma 6 Sudoeste 0 -- -- 97
2020-10-31 03:00:00 2.2 3 Sudoeste 10 Oeste 0 -- -- 97
2020-10-31 02:00:00 2.2 0 Calma 5 Noroeste 0 -- -- 97
2020-10-31 01:00:00 2.2 0 Calma 5 Sudoeste 0 -- -- 96
2020-10-31 00:00:00 2.6 0 Calma 4 Sudoeste 0 -- -- 96
2020-10-30 23:00:00 3 0 Calma 3 Sudoeste 0 -- -- 95
2020-10-30 22:00:00 3.5 2 Sudoeste 3 Sudoeste 0 -- -- 94
2020-10-30 21:00:00 4.2 0 Calma 3 Sudoeste 0 -- -- 92
2020-10-30 20:00:00 5.5 0 Calma 2 Sudoeste 0 -- -- 90
2020-10-30 19:00:00 7.3 0 Calma 4 Oeste 0 -- -- 86
2020-10-30 18:00:00 10.9 0 Calma 4 Norte 0 -- -- 73
2020-10-30 17:00:00 19.5 3 Nordeste 9 Este 0 -- -- 42
2020-10-30 16:00:00 20.1 3 Nordeste 8 Nordeste 0 -- -- 32
2020-10-30 15:00:00 20.1 3 Nordeste 8 Este 0 -- -- 30
2020-10-30 14:00:00 19.5 3 Nordeste 10 Este 0 -- -- 33
2020-10-30 13:00:00 17.9 3 Nordeste 6 Nordeste 0 -- -- 30
2020-10-30 12:00:00 15.6 2 Este 5 Sudeste 0 -- -- 42
2020-10-30 11:00:00 12 0 Calma 4 Sudeste 0 -- -- 59
2020-10-30 10:00:00 6.9 0 Calma 2 Oeste 0.2 -- -- 97
2020-10-30 09:00:00 0.5 0 Calma 2 Oeste 0 -- -- 99
2020-10-30 08:00:00 -1.4 0 Calma -- -- 0 -- -- 98
2020-10-30 07:00:00 -1.2 0 Calma 0 Calma 0 -- -- 97
2020-10-30 06:00:00 -1 0 Calma 3 Sudoeste 0 -- -- 97
2020-10-30 05:00:00 -0.9 0 Calma 3 Sudoeste 0 -- -- 97
2020-10-30 04:00:00 -0.6 0 Calma 2 Oeste 0 -- -- 97
2020-10-30 03:00:00 -0.4 0 Calma 3 Sudoeste 0 -- -- 97
2020-10-30 02:00:00 -0.1 2 Sudoeste 4 Sudoeste 0 -- -- 97
2020-10-30 01:00:00 0.5 0 Calma 3 Sudoeste 0 -- -- 97
2020-10-30 00:00:00 1 0 Calma 3 Sudoeste 0 -- -- 96
2020-10-29 23:00:00 1.7 0 Calma 4 Oeste 0 -- -- 95
2020-10-29 22:00:00 2.5 0 Calma 5 Oeste 0 -- -- 95
2020-10-29 21:00:00 3.6 3 Sudoeste 4 Sudoeste 0 -- -- 95
2020-10-29 20:00:00 4.7 2 Sudoeste 3 Oeste 0 -- -- 93
2020-10-29 19:00:00 6.7 0 Calma 4 Sudoeste 0 -- -- 90
2020-10-29 18:00:00 10.3 0 Calma 4 Norte 0 -- -- 84
2020-10-29 17:00:00 16 2 Nordeste 6 Este 0 -- -- 63
2020-10-29 16:00:00 16.8 2 Nordeste 7 Norte 0 -- -- 61
2020-10-29 15:00:00 15.4 2 Nordeste 9 Nordeste 0 -- -- 65
2020-10-29 14:00:00 14.5 3 Este 8 Este 0 -- -- 66
2020-10-29 13:00:00 11.9 3 Norte 9 Este 0 -- -- 72
2020-10-29 12:00:00 10.2 4 Nordeste 12 Este 0 -- -- 76
2020-10-29 11:00:00 8.9 2 Este 5 Nordeste 0 -- -- 78
2020-10-29 10:00:00 5.2 0 Calma 3 Sur 0 -- -- 92
2020-10-29 09:00:00 0.5 0 Calma 0 Calma 0 -- -- 99
2020-10-29 08:00:00 -0.8 0 Calma 0 Calma 0 -- -- 97
2020-10-29 07:00:00 -0.7 0 Calma 2 Noroeste 0 -- -- 97
2020-10-29 06:00:00 -0.1 0 Calma 2 Oeste 0 -- -- 97
2020-10-29 05:00:00 0.7 0 Calma 3 Oeste 0 -- -- 96
2020-10-29 04:00:00 2 0 Calma 3 Sudoeste 0 -- -- 97
2020-10-29 03:00:00 3.2 0 Calma 4 Sudoeste 0 -- -- 97
2020-10-29 02:00:00 4.4 0 Calma 3 Sur 0 -- -- 97
2020-10-29 01:00:00 5 0 Calma 5 Sudeste 0 -- -- 97
2020-10-29 00:00:00 5.7 0 Calma 5 Este 0.2 -- -- 97
2020-10-28 23:00:00 6.6 0 Calma 6 Sudeste 0 -- -- 97
2020-10-28 22:00:00 7.6 0 Calma 4 Este 0 -- -- 97
2020-10-28 21:00:00 7.9 2 Este 7 Oeste 0 -- -- 97
2020-10-28 20:00:00 7.2 0 Calma 6 Oeste 0 -- -- 94
2020-10-28 19:00:00 8.8 2 Sudeste 5 Oeste 0 -- -- 93
2020-10-28 18:00:00 10.5 2 Sudeste 10 Nordeste 0 -- -- 88
2020-10-28 17:00:00 12.9 3 Este 10 Sudeste 0 -- -- 80
2020-10-28 16:00:00 12.3 4 Norte 8 Sudeste 0 -- -- 86
2020-10-28 15:00:00 11.4 0 Calma 8 Este 0.2 -- -- 91
2020-10-28 14:00:00 10.6 3 Nordeste 9 Este 0.2 -- -- 93
2020-10-28 13:00:00 10.4 2 Este 6 Este 0.2 -- -- 91
2020-10-28 12:00:00 9.4 2 Nordeste 8 Este 0 -- -- 93
2020-10-28 11:00:00 8.7 3 Nordeste 8 Nordeste 0 -- -- 94
2020-10-28 10:00:00 8 0 Calma 9 Sudeste 0 -- -- 95
2020-10-28 09:00:00 7.7 2 Nordeste 6 Nordeste 0 -- -- 95
2020-10-28 08:00:00 7.8 0 Calma 8 Sudeste 0.2 -- -- 96
2020-10-28 07:00:00 7.6 3 Nordeste 7 Sudeste 0.4 -- -- 95
2020-10-28 06:00:00 7.7 0 Calma 5 Sudeste 0.2 -- -- 94
2020-10-28 05:00:00 8.2 3 Nordeste 5 Este 0 -- -- 92
2020-10-28 04:00:00 9.1 2 Sudeste 8 Oeste 0 -- -- 89
2020-10-28 03:00:00 9.7 3 Nordeste 16 Noroeste 0 -- -- 87
2020-10-28 02:00:00 9 2 Sudoeste 7 Sudoeste 0 -- -- 87
2020-10-28 01:00:00 9.6 0 Calma 10 Oeste 0 -- -- 83
2020-10-28 00:00:00 10.5 3 Oeste 17 Oeste 0 -- -- 79